Time;durP1;ratioP1;P1;durP2;ratioP2;P2;SDS_P1;SDS_P2;PMS_P1;PMS_P2;Temp;Humidity;BMP_temperature;BMP_pressure;BME280_temperature;BME280_humidity;BME280_pressure;Samples;Min_cycle;Max_cycle;Signal;HPM_P1;HPM_P2
2022/01/03 04:01:52;;;;;;;2.47;0.90;;;12.30;70.90;;;;;;5474479;22;20503;-73
2022/01/03 04:04:19;;;;;;;2.40;1.00;;;12.30;70.30;;;;;;5034828;28;20502;-73
2022/01/03 04:06:46;;;;;;;2.77;1.03;;;12.30;70.30;;;;;;5034815;28;20446;-73
2022/01/03 04:09:13;;;;;;;2.07;0.80;;;12.30;70.10;;;;;;5034502;28;20432;-73
2022/01/03 04:11:40;;;;;;;2.20;0.80;;;12.30;70.30;;;;;;5034583;28;20462;-74
2022/01/03 04:14:07;;;;;;;2.73;1.20;;;12.30;70.40;;;;;;5034624;28;20444;-74
2022/01/03 04:16:34;;;;;;;3.23;1.20;;;12.20;70.60;;;;;;5068078;22;20498;-75
2022/01/03 04:19:02;;;;;;;2.40;1.20;;;12.20;70.70;;;;;;5054545;28;20536;-75
2022/01/03 04:21:29;;;;;;;3.60;1.10;;;12.00;70.90;;;;;;5054513;28;20496;-75
2022/01/03 04:23:56;;;;;;;2.70;1.10;;;11.80;71.50;;;;;;5054211;28;20858;-75
2022/01/03 04:26:22;;;;;;;3.60;1.03;;;11.70;71.80;;;;;;5054316;28;20463;-75
2022/01/03 04:28:49;;;;;;;4.30;1.57;;;11.60;72.10;;;;;;5054345;28;20499;-75
2022/01/03 04:31:16;;;;;;;2.30;1.00;;;11.60;72.40;;;;;;5053995;28;20952;-75
2022/01/03 04:33:43;;;;;;;4.03;1.13;;;11.60;72.20;;;;;;5054481;28;20454;-76
2022/01/03 04:36:11;;;;;;;3.30;1.47;;;11.70;72.30;;;;;;5054089;28;20486;-76
2022/01/03 04:38:38;;;;;;;2.50;0.90;;;11.80;71.90;;;;;;5054143;28;20576;-75
2022/01/03 04:41:05;;;;;;;2.63;1.40;;;11.80;72.10;;;;;;5054195;28;20500;-75
2022/01/03 04:43:33;;;;;;;2.20;1.00;;;11.80;72.00;;;;;;5054057;28;20503;-75
2022/01/03 04:46:00;;;;;;;3.73;1.43;;;11.80;72.00;;;;;;5053956;28;20551;-75
2022/01/03 04:48:27;;;;;;;2.50;1.00;;;12.00;71.70;;;;;;5053990;28;20451;-76
2022/01/03 04:50:54;;;;;;;2.63;1.07;;;12.10;71.40;;;;;;5054529;28;20446;-75
2022/01/03 04:53:25;;;;;;;3.10;1.27;;;12.10;70.80;;;;;;5053614;28;20450;-76
2022/01/03 04:55:51;;;;;;;3.07;1.30;;;12.30;70.70;;;;;;5054013;28;20486;-76
2022/01/03 04:58:18;;;;;;;2.93;1.27;;;12.20;70.80;;;;;;5053852;28;20454;-75
2022/01/03 05:00:47;;;;;;;2.50;1.00;;;12.20;70.80;;;;;;5053893;28;20463;-76
2022/01/03 05:03:14;;;;;;;2.60;1.20;;;12.30;70.70;;;;;;5053416;28;20934;-75
2022/01/03 05:05:40;;;;;;;2.27;0.90;;;12.30;70.70;;;;;;5053315;28;20941;-76
2022/01/03 05:08:07;;;;;;;4.43;1.20;;;12.40;70.00;;;;;;5053420;28;20859;-76
2022/01/03 05:10:35;;;;;;;2.50;1.20;;;12.20;70.20;;;;;;5053673;28;20477;-76
2022/01/03 05:13:02;;;;;;;2.30;0.90;;;12.10;71.00;;;;;;5054201;28;20450;-76
2022/01/03 05:15:29;;;;;;;2.97;1.00;;;12.10;72.10;;;;;;5053353;28;20542;-75
2022/01/03 05:17:56;;;;;;;3.47;0.97;;;12.00;72.10;;;;;;5053552;28;20450;-76
2022/01/03 05:20:22;;;;;;;2.47;0.90;;;12.20;73.00;;;;;;5053560;28;20508;-75
2022/01/03 05:22:49;;;;;;;3.03;1.17;;;12.20;71.50;;;;;;5053565;28;20447;-76
2022/01/03 05:25:16;;;;;;;5.87;1.07;;;12.10;70.80;;;;;;5053465;28;20442;-75
2022/01/03 05:27:44;;;;;;;2.90;1.10;;;12.00;71.60;;;;;;5053344;28;20467;-75
2022/01/03 05:30:11;;;;;;;2.33;1.00;;;12.00;71.10;;;;;;5052982;28;20495;-75
2022/01/03 05:32:38;;;;;;;2.37;0.80;;;12.00;71.30;;;;;;5053383;28;20484;-76
2022/01/03 05:35:06;;;;;;;2.30;0.97;;;12.10;71.00;;;;;;5053291;28;20887;-75
2022/01/03 05:37:32;;;;;;;4.17;1.30;;;12.10;70.30;;;;;;5053227;28;20516;-75
2022/01/03 05:39:59;;;;;;;3.23;1.27;;;11.90;70.50;;;;;;5053029;28;20500;-75
2022/01/03 05:42:26;;;;;;;3.67;0.93;;;11.90;70.90;;;;;;5052960;28;20995;-75
2022/01/03 05:44:54;;;;;;;2.63;0.90;;;12.00;70.50;;;;;;5053262;28;20508;-76
2022/01/03 05:47:20;;;;;;;2.40;1.10;;;12.00;70.20;;;;;;5053432;28;20466;-75
2022/01/03 05:49:47;;;;;;;3.67;1.13;;;12.00;70.50;;;;;;5053213;28;20500;-76
2022/01/03 05:52:14;;;;;;;3.17;0.97;;;12.10;70.10;;;;;;5053197;28;20450;-75
2022/01/03 05:54:40;;;;;;;2.73;1.50;;;12.20;69.60;;;;;;5053211;28;20445;-76
2022/01/03 05:57:07;;;;;;;2.80;1.10;;;12.30;69.70;;;;;;5052819;28;20466;-76
2022/01/03 05:59:34;;;;;;;2.40;1.00;;;12.30;68.90;;;;;;5053191;28;20504;-76
2022/01/03 06:02:03;;;;;;;3.40;1.00;;;12.30;69.20;;;;;;5053181;28;20454;-76
2022/01/03 06:04:41;;;;;;;3.10;1.00;;;12.40;69.10;;;;;;5052810;28;20899;-76
2022/01/03 06:07:09;;;;;;;3.83;1.10;;;12.40;69.00;;;;;;5053088;28;20474;-76
2022/01/03 06:09:37;;;;;;;6.13;1.00;;;12.40;68.90;;;;;;5053108;28;20450;-76
2022/01/03 06:12:04;;;;;;;2.77;1.30;;;12.20;69.80;;;;;;5052868;28;20941;-75
2022/01/03 06:14:32;;;;;;;3.17;0.90;;;12.30;69.90;;;;;;5052758;28;20434;-75
2022/01/03 06:16:59;;;;;;;3.13;1.20;;;12.30;70.20;;;;;;5052525;28;20494;-75
2022/01/03 06:19:28;;;;;;;2.63;0.90;;;12.10;70.50;;;;;;5052935;28;20860;-75
2022/01/03 06:21:55;;;;;;;2.70;1.13;;;12.00;71.40;;;;;;5052916;28;20476;-75
2022/01/03 06:24:21;;;;;;;2.90;1.10;;;12.00;71.10;;;;;;5052578;28;20941;-75
2022/01/03 06:26:49;;;;;;;2.30;1.00;;;12.00;70.70;;;;;;5052473;28;20973;-76
2022/01/03 06:29:18;;;;;;;2.53;1.03;;;12.00;71.20;;;;;;5052854;28;20454;-76
2022/01/03 06:31:45;;;;;;;4.80;1.00;;;12.10;70.80;;;;;;5052828;28;20453;-75
2022/01/03 06:34:12;;;;;;;2.30;0.90;;;12.20;70.10;;;;;;5052874;28;20499;-76
2022/01/03 06:36:40;;;;;;;2.93;1.10;;;12.10;70.10;;;;;;5053261;28;21020;-76
2022/01/03 06:39:09;;;;;;;2.40;0.90;;;12.10;70.20;;;;;;5053488;28;20446;-76
2022/01/03 06:41:36;;;;;;;2.93;1.10;;;11.90;71.00;;;;;;5053660;28;20446;-76
2022/01/03 06:44:04;;;;;;;2.50;1.17;;;11.90;71.10;;;;;;5056642;28;20504;-75
2022/01/03 06:46:30;;;;;;;3.60;1.10;;;11.80;71.90;;;;;;5056017;28;20516;-75
2022/01/03 06:48:57;;;;;;;2.70;1.20;;;11.70;71.80;;;;;;5056252;28;20800;-76
2022/01/03 06:51:25;;;;;;;4.20;1.30;;;11.70;72.40;;;;;;5056269;28;20454;-75
2022/01/03 06:53:53;;;;;;;2.70;1.30;;;11.60;72.80;;;;;;5056515;28;20446;-75
2022/01/03 06:56:20;;;;;;;2.60;1.00;;;11.70;72.70;;;;;;5056024;28;20485;-75
2022/01/03 06:58:47;;;;;;;2.67;1.10;;;11.60;73.10;;;;;;5056127;28;20496;-75
2022/01/03 07:01:13;;;;;;;3.13;1.30;;;11.70;73.00;;;;;;5055931;28;20842;-75
2022/01/03 07:03:40;;;;;;;3.33;0.90;;;11.70;73.20;;;;;;5056094;28;20454;-75
2022/01/03 07:06:07;;;;;;;4.77;1.10;;;11.70;73.50;;;;;;5056132;28;20512;-75
2022/01/03 07:08:33;;;;;;;2.93;0.87;;;11.60;73.40;;;;;;5055980;28;20503;-75
2022/01/03 07:11:01;;;;;;;2.80;1.10;;;11.70;73.50;;;;;;5055858;28;20500;-75
2022/01/03 07:13:30;;;;;;;3.33;1.17;;;11.50;73.80;;;;;;5055811;28;20442;-75
2022/01/03 07:19:00;;;;;;;2.83;1.10;;;11.40;75.00;;;;;;5055665;28;20406;-75
2022/01/03 07:21:28;;;;;;;3.10;1.20;;;11.30;75.50;;;;;;5055753;28;20469;-75
2022/01/03 07:23:55;;;;;;;3.17;1.17;;;11.30;75.80;;;;;;5055675;28;20446;-75
2022/01/03 07:26:24;;;;;;;3.50;1.10;;;11.30;75.90;;;;;;5055580;28;20520;-75
2022/01/03 07:28:51;;;;;;;3.47;1.30;;;11.30;76.60;;;;;;5055624;28;20516;-75
2022/01/03 07:31:18;;;;;;;3.27;1.77;;;11.20;76.20;;;;;;5055201;28;20999;-75
2022/01/03 07:33:46;;;;;;;2.80;1.47;;;11.20;76.30;;;;;;5055203;28;20995;-75
2022/01/03 07:36:13;;;;;;;3.27;1.20;;;11.40;76.30;;;;;;5055042;28;20989;-75
2022/01/03 07:38:39;;;;;;;3.50;1.43;;;11.50;75.80;;;;;;5055298;28;20496;-75
2022/01/03 07:41:07;;;;;;;3.23;1.40;;;11.50;75.30;;;;;;5055408;28;20475;-75
2022/01/03 07:43:35;;;;;;;3.07;1.10;;;11.60;75.30;;;;;;5055217;28;20446;-75
2022/01/03 07:46:02;;;;;;;2.93;1.20;;;11.50;75.30;;;;;;5054990;28;20817;-75
2022/01/03 07:48:30;;;;;;;2.47;0.90;;;11.60;75.80;;;;;;5055272;28;20450;-75
2022/01/03 07:50:57;;;;;;;3.27;1.50;;;11.60;75.90;;;;;;5055927;28;20552;-75
2022/01/03 07:53:24;;;;;;;3.20;0.97;;;11.50;76.30;;;;;;5054935;28;20447;-75
2022/01/03 07:55:50;;;;;;;2.70;1.33;;;11.30;77.50;;;;;;5055111;28;20486;-76
2022/01/03 07:58:17;;;;;;;3.10;1.40;;;11.50;77.80;;;;;;5055141;28;20454;-76
2022/01/03 08:00:46;;;;;;;2.50;1.00;;;11.60;77.70;;;;;;5055192;28;20531;-75
2022/01/03 08:03:13;;;;;;;2.97;1.47;;;11.80;77.20;;;;;;5054998;28;20805;-75
2022/01/03 08:05:40;;;;;;;2.10;0.90;;;11.90;76.80;;;;;;5054723;28;20438;-75
2022/01/03 08:08:09;;;;;;;2.30;1.03;;;12.00;76.60;;;;;;5054835;28;20454;-75
2022/01/03 08:10:37;;;;;;;3.33;1.10;;;12.20;76.00;;;;;;5054861;28;20488;-76
2022/01/03 08:13:04;;;;;;;2.50;1.10;;;12.20;75.00;;;;;;5054694;28;20455;-75
2022/01/03 08:15:31;;;;;;;2.23;1.07;;;12.20;75.10;;;;;;5054392;28;20482;-75
2022/01/03 08:17:59;;;;;;;2.40;1.10;;;12.00;75.00;;;;;;5054451;28;20968;-75
2022/01/03 08:20:26;;;;;;;3.23;1.10;;;12.10;74.70;;;;;;5054326;28;20874;-75
2022/01/03 08:22:53;;;;;;;2.30;1.00;;;11.70;75.00;;;;;;5054593;28;20538;-75
2022/01/03 08:25:19;;;;;;;2.73;1.20;;;11.70;75.40;;;;;;5054473;28;20508;-75
2022/01/03 08:27:46;;;;;;;2.73;0.90;;;11.80;75.50;;;;;;5054284;28;20466;-75
2022/01/03 08:30:13;;;;;;;2.73;1.13;;;11.80;74.70;;;;;;5054126;28;20999;-75
2022/01/03 08:32:40;;;;;;;2.30;1.00;;;11.80;74.80;;;;;;5054326;28;20945;-75
2022/01/03 08:35:09;;;;;;;3.53;1.10;;;11.80;74.60;;;;;;5054151;28;20990;-75
2022/01/03 08:37:37;;;;;;;2.13;0.80;;;11.80;74.70;;;;;;5054184;28;20489;-76
2022/01/03 08:40:06;;;;;;;2.37;1.00;;;11.90;74.50;;;;;;5054264;28;20446;-75
2022/01/03 08:42:33;;;;;;;3.10;1.10;;;12.10;73.90;;;;;;5054167;28;20450;-75
2022/01/03 08:45:00;;;;;;;2.37;1.00;;;12.10;73.00;;;;;;5054211;28;20439;-75
2022/01/03 08:47:27;;;;;;;2.50;1.10;;;12.00;73.60;;;;;;5054119;28;20508;-75
2022/01/03 08:49:54;;;;;;;3.53;1.50;;;12.00;73.90;;;;;;5055131;28;20459;-75
2022/01/03 08:52:22;;;;;;;3.33;1.33;;;11.90;73.60;;;;;;5053825;28;20999;-75
2022/01/03 08:54:49;;;;;;;2.57;0.83;;;11.80;74.20;;;;;;5054130;28;20442;-75
2022/01/03 08:57:16;;;;;;;2.50;0.80;;;11.80;73.60;;;;;;5057581;28;20840;-75
2022/01/03 08:59:43;;;;;;;2.67;1.07;;;11.80;73.50;;;;;;5070256;28;20430;-75
2022/01/03 09:02:10;;;;;;;2.70;0.90;;;11.80;73.60;;;;;;5079202;28;20464;-74
2022/01/03 09:04:36;;;;;;;2.93;0.90;;;12.00;73.00;;;;;;5053918;28;20910;-75
2022/01/03 09:07:03;;;;;;;3.23;1.20;;;11.90;73.10;;;;;;5053432;28;20969;-75
2022/01/03 09:09:32;;;;;;;2.70;1.10;;;12.00;73.40;;;;;;5053867;28;20442;-75
2022/01/03 09:12:00;;;;;;;2.53;0.90;;;12.20;72.50;;;;;;5053572;28;20443;-76
2022/01/03 09:14:27;;;;;;;2.87;0.93;;;12.30;71.40;;;;;;5053522;28;20446;-76
2022/01/03 09:16:54;;;;;;;2.77;1.10;;;12.20;71.90;;;;;;5053457;28;20490;-75
2022/01/03 09:19:21;;;;;;;3.53;1.20;;;12.00;72.00;;;;;;5053656;28;20504;-75
2022/01/03 09:21:48;;;;;;;2.57;1.00;;;12.00;72.20;;;;;;5053705;28;20492;-75
2022/01/03 09:24:24;;;;;;;2.50;0.93;;;11.90;72.50;;;;;;5054271;28;20472;-75
2022/01/03 09:29:39;;;;;;;2.90;1.47;;;11.90;72.40;;;;;;5036162;28;20858;-75
2022/01/03 09:32:06;;;;;;;4.30;1.10;;;12.10;72.90;;;;;;5053496;28;20446;-75
2022/01/03 09:34:33;;;;;;;3.00;1.43;;;12.10;71.90;;;;;;5053242;28;21024;-76
2022/01/03 09:37:02;;;;;;;2.20;0.80;;;12.10;72.00;;;;;;5053421;28;20489;-75
2022/01/03 09:39:29;;;;;;;2.60;1.30;;;12.20;71.60;;;;;;5053502;28;20454;-75
2022/01/03 09:42:02;;;;;;;2.90;1.20;;;12.30;71.30;;;;;;5053578;28;20446;-75
2022/01/03 09:44:31;;;;;;;4.87;2.53;;;12.40;71.60;;;;;;5053620;28;20431;-75
2022/01/03 09:47:01;;;;;;;2.60;1.30;;;12.50;71.10;;;;;;5053312;28;20458;-76
2022/01/03 09:49:33;;;;;;;2.60;1.07;;;12.40;70.70;;;;;;5054146;28;20450;-76
2022/01/03 09:52:00;;;;;;;2.73;1.00;;;12.30;70.90;;;;;;5054102;28;20541;-76
2022/01/03 09:54:28;;;;;;;3.03;1.23;;;12.10;71.90;;;;;;5054319;28;20447;-76
2022/01/03 09:56:57;;;;;;;3.13;1.03;;;12.10;71.70;;;;;;5054037;28;20487;-76
2022/01/03 09:59:24;;;;;;;2.40;1.00;;;12.10;72.70;;;;;;5053731;28;20500;-76
2022/01/03 10:01:52;;;;;;;3.17;1.20;;;12.20;71.90;;;;;;5053173;28;20462;-76
2022/01/03 10:04:20;;;;;;;2.90;1.10;;;12.20;72.10;;;;;;5052973;28;20933;-76
2022/01/03 10:06:47;;;;;;;2.87;1.30;;;12.10;72.60;;;;;;5053137;28;20516;-76
2022/01/03 10:09:14;;;;;;;3.20;1.00;;;12.20;72.80;;;;;;5053120;28;20500;-76
2022/01/03 10:11:41;;;;;;;3.53;1.30;;;12.30;72.30;;;;;;5052752;28;20851;-76
2022/01/03 10:14:11;;;;;;;2.40;1.17;;;12.30;72.20;;;;;;5053227;28;20442;-76
2022/01/03 10:16:38;;;;;;;3.47;1.17;;;12.30;72.50;;;;;;5071874;22;20982;-74
2022/01/03 10:19:05;;;;;;;2.70;1.20;;;12.10;72.70;;;;;;5036868;28;20501;-73
2022/01/03 10:21:36;;;;;;;3.00;1.07;;;11.90;73.80;;;;;;5036508;28;20946;-74
2022/01/03 10:24:04;;;;;;;2.43;1.00;;;12.00;74.20;;;;;;5036834;28;20446;-73
2022/01/03 10:26:31;;;;;;;2.47;1.13;;;12.00;73.60;;;;;;5036650;28;20455;-73
2022/01/03 10:29:13;;;;;;;3.17;1.20;;;12.10;73.30;;;;;;5036926;28;20494;-74
2022/01/03 10:31:41;;;;;;;3.20;1.00;;;12.20;73.20;;;;;;5036577;28;20530;-73
2022/01/03 10:34:10;;;;;;;2.27;0.87;;;12.30;73.30;;;;;;5036551;28;20489;-73
2022/01/03 10:36:38;;;;;;;3.07;1.10;;;12.30;73.20;;;;;;5036358;28;20487;-73
2022/01/03 10:39:19;;;;;;;2.40;0.90;;;12.40;72.50;;;;;;5036490;28;20443;-74
2022/01/03 10:41:47;;;;;;;2.30;1.00;;;12.40;72.70;;;;;;5036450;28;20462;-73
2022/01/03 10:44:31;;;;;;;3.60;1.33;;;12.30;72.90;;;;;;5036105;28;20443;-72
2022/01/03 10:46:58;;;;;;;3.03;1.10;;;12.30;73.40;;;;;;5035984;28;20896;-73
2022/01/03 10:49:27;;;;;;;2.77;1.00;;;12.30;73.60;;;;;;5036229;28;20451;-74
2022/01/03 10:52:15;;;;;;;2.70;1.27;;;12.20;73.50;;;;;;5036329;28;20439;-73
2022/01/03 10:54:42;;;;;;;2.63;0.90;;;12.40;73.30;;;;;;5036180;28;20432;-73
2022/01/03 10:57:09;;;;;;;4.30;1.13;;;12.40;73.10;;;;;;5035735;28;20989;-74
2022/01/03 10:59:38;;;;;;;2.27;1.10;;;12.30;73.00;;;;;;5035786;28;20447;-74
2022/01/03 11:02:07;;;;;;;2.30;1.00;;;12.30;73.10;;;;;;5036498;28;20444;-75
2022/01/03 11:04:42;;;;;;;2.60;0.80;;;12.30;73.70;;;;;;5035904;28;20451;-74
2022/01/03 11:13:10;;;;;;;2.50;0.90;;;12.50;73.10;;;;;;5036259;28;20407;-74
2022/01/03 11:15:40;;;;;;;2.53;1.00;;;12.40;73.00;;;;;;5035779;28;20444;-74
2022/01/03 11:18:12;;;;;;;2.30;0.80;;;12.40;72.80;;;;;;5035265;28;20566;-74
2022/01/03 11:20:39;;;;;;;2.67;1.00;;;12.50;72.90;;;;;;5035708;28;20447;-74
2022/01/03 11:23:05;;;;;;;2.57;1.17;;;12.50;72.80;;;;;;5035643;28;20447;-74
2022/01/03 11:25:35;;;;;;;3.23;1.17;;;12.50;72.70;;;;;;5035598;28;20501;-74
2022/01/03 11:28:03;;;;;;;2.60;1.00;;;12.40;72.40;;;;;;5034936;28;20460;-74
2022/01/03 11:30:30;;;;;;;3.27;1.20;;;12.50;72.90;;;;;;5036064;28;20455;-74
2022/01/03 11:33:00;;;;;;;2.47;1.00;;;12.60;71.90;;;;;;5035504;28;20440;-74
2022/01/03 11:35:27;;;;;;;4.10;1.33;;;12.70;72.70;;;;;;5035816;28;20456;-75
2022/01/03 11:37:54;;;;;;;2.43;0.97;;;12.90;71.50;;;;;;5035261;28;20487;-74
2022/01/03 11:40:22;;;;;;;2.87;0.97;;;12.80;71.00;;;;;;5035414;28;20451;-74
2022/01/03 11:42:49;;;;;;;2.00;0.80;;;12.70;71.60;;;;;;5035121;28;20834;-74
2022/01/03 11:45:16;;;;;;;2.80;1.10;;;12.60;71.10;;;;;;5035053;28;20435;-75
2022/01/03 11:47:43;;;;;;;3.07;1.00;;;12.50;71.40;;;;;;5035179;28;20463;-74
2022/01/03 11:50:11;;;;;;;2.93;0.90;;;12.50;71.50;;;;;;5034893;28;20949;-74
2022/01/03 11:52:41;;;;;;;2.30;1.00;;;12.60;71.40;;;;;;5034751;28;20456;-74
2022/01/03 11:55:09;;;;;;;2.40;0.80;;;12.50;70.70;;;;;;5035081;28;20483;-74
2022/01/03 12:03:38;;;;;;;2.30;0.80;;;12.50;70.60;;;;;;5034816;28;20411;-75
2022/01/03 12:06:09;;;;;;;2.80;1.20;;;12.50;68.70;;;;;;5034822;28;20431;-75
2022/01/03 12:08:37;;;;;;;3.00;1.20;;;12.60;69.30;;;;;;5034796;28;20482;-74
2022/01/03 12:11:18;;;;;;;2.50;1.00;;;12.60;69.10;;;;;;5034758;28;20478;-74
2022/01/03 12:13:52;;;;;;;2.80;0.90;;;12.80;68.80;;;;;;5034616;28;20428;-74
2022/01/03 12:16:36;;;;;;;2.30;1.00;;;12.90;67.20;;;;;;5034479;28;20482;-75
2022/01/03 12:19:06;;;;;;;2.70;1.27;;;12.80;66.90;;;;;;5034551;28;20518;-75
2022/01/03 12:21:55;;;;;;;2.27;0.93;;;12.60;67.90;;;;;;5034457;28;20916;-74
2022/01/03 12:24:40;;;;;;;2.10;0.83;;;12.40;68.00;;;;;;5034516;28;20518;-75
2022/01/03 12:27:28;;;;;;;2.40;0.80;;;12.40;68.30;;;;;;5034455;28;20471;-74
2022/01/03 12:30:25;;;;;;;2.40;0.90;;;12.40;68.00;;;;;;5034445;28;20435;-75
2022/01/03 12:33:25;;;;;;;2.90;1.00;;;12.50;68.20;;;;;;5034103;28;20986;-74
2022/01/03 12:36:15;;;;;;;2.73;0.87;;;12.60;68.30;;;;;;5034324;28;20428;-75
2022/01/03 12:39:04;;;;;;;2.73;0.90;;;12.60;68.60;;;;;;5034090;28;20517;-74
2022/01/03 12:41:41;;;;;;;2.50;1.00;;;12.70;68.40;;;;;;5032794;28;20926;-75
2022/01/03 12:44:10;;;;;;;2.40;1.00;;;12.80;68.60;;;;;;5033761;28;20934;-75
2022/01/03 12:46:37;;;;;;;2.70;1.00;;;12.70;68.40;;;;;;5034003;28;20477;-74
2022/01/03 12:49:25;;;;;;;2.53;1.10;;;12.50;69.00;;;;;;5034039;28;20452;-74
2022/01/03 12:51:52;;;;;;;2.50;1.43;;;12.60;69.40;;;;;;5034664;28;20481;-75
2022/01/03 12:54:41;;;;;;;2.33;0.90;;;12.80;69.40;;;;;;5033946;28;20435;-75
2022/01/03 12:57:17;;;;;;;2.80;0.90;;;13.00;67.80;;;;;;5033887;28;20486;-75
2022/01/03 12:59:45;;;;;;;2.70;0.93;;;13.20;68.00;;;;;;5034155;28;20554;-75
2022/01/03 13:02:31;;;;;;;2.93;1.20;;;13.10;67.50;;;;;;5033820;28;20443;-74
2022/01/03 13:05:01;;;;;;;2.80;1.17;;;13.30;68.00;;;;;;5033770;28;20454;-74
2022/01/03 13:07:28;;;;;;;2.40;0.90;;;13.50;68.00;;;;;;5040878;28;20467;-74
2022/01/03 13:09:56;;;;;;;2.33;0.83;;;13.60;66.60;;;;;;5041488;28;20459;-74
2022/01/03 13:12:23;;;;;;;2.30;0.93;;;13.60;66.60;;;;;;5040941;28;20454;-74
2022/01/03 13:14:50;;;;;;;2.70;1.17;;;13.60;65.90;;;;;;5040904;28;20514;-73
2022/01/03 13:17:17;;;;;;;2.67;1.50;;;13.70;65.60;;;;;;5039996;28;20714;-74
2022/01/03 13:19:44;;;;;;;2.40;1.17;;;13.70;65.30;;;;;;5040590;28;20482;-75
2022/01/03 13:22:12;;;;;;;3.13;1.10;;;13.60;65.30;;;;;;5041064;28;20495;-74
2022/01/03 13:24:41;;;;;;;2.20;0.83;;;13.50;65.90;;;;;;5040958;28;20455;-74
2022/01/03 13:27:11;;;;;;;2.40;0.90;;;13.50;65.50;;;;;;5041105;28;20464;-74
2022/01/03 13:29:43;;;;;;;2.13;0.87;;;13.40;65.60;;;;;;5041447;28;20447;-74
2022/01/03 13:32:13;;;;;;;2.50;1.03;;;13.40;66.30;;;;;;5041724;28;20776;-74
2022/01/03 13:34:40;;;;;;;2.53;1.13;;;13.10;66.70;;;;;;5041677;28;20443;-74
2022/01/03 13:37:09;;;;;;;2.53;1.00;;;13.10;66.60;;;;;;5040664;28;20522;-74
2022/01/03 13:39:38;;;;;;;3.07;1.13;;;13.00;66.70;;;;;;5040816;28;20455;-74
2022/01/03 13:42:08;;;;;;;2.63;1.00;;;12.70;67.40;;;;;;5040358;28;20498;-74
2022/01/03 13:50:12;;;;;;;2.20;0.80;;;12.40;68.20;;;;;;5033532;28;20407;-74
2022/01/03 13:52:41;;;;;;;2.00;0.70;;;12.60;68.60;;;;;;5035810;28;20495;-74
2022/01/03 13:55:16;;;;;;;2.70;0.90;;;12.50;68.50;;;;;;5037338;28;20474;-74
2022/01/03 13:57:44;;;;;;;3.63;1.33;;;12.50;68.60;;;;;;5037150;28;20560;-74
2022/01/03 14:00:17;;;;;;;3.27;0.70;;;12.30;68.50;;;;;;5037262;28;20451;-74
2022/01/03 14:02:44;;;;;;;2.67;1.00;;;12.20;69.00;;;;;;5036861;28;20908;-74
2022/01/03 14:05:12;;;;;;;2.30;0.90;;;12.00;69.60;;;;;;5036871;28;21000;-74
2022/01/03 14:07:51;;;;;;;3.70;1.00;;;12.00;70.10;;;;;;5037054;28;20514;-74
2022/01/03 14:10:18;;;;;;;3.27;0.90;;;12.10;69.90;;;;;;5037232;28;20427;-74
2022/01/03 14:12:50;;;;;;;2.30;0.90;;;12.20;69.40;;;;;;5037067;28;20443;-75
2022/01/03 14:15:18;;;;;;;2.40;1.00;;;12.30;69.30;;;;;;5037117;28;20438;-74
2022/01/03 14:17:50;;;;;;;3.40;0.80;;;12.60;69.30;;;;;;5036537;28;20545;-75
2022/01/03 14:20:19;;;;;;;2.20;0.80;;;12.70;67.30;;;;;;5037010;28;20970;-75
2022/01/03 14:22:45;;;;;;;3.10;1.10;;;12.80;66.80;;;;;;5036850;28;20505;-74
2022/01/03 14:25:13;;;;;;;2.10;0.90;;;12.80;67.00;;;;;;5036774;28;20451;-75
2022/01/03 14:27:43;;;;;;;3.50;0.80;;;12.90;66.70;;;;;;5036621;28;20470;-75
2022/01/03 14:30:31;;;;;;;2.87;1.17;;;13.20;66.00;;;;;;5036637;28;20473;-75
2022/01/03 14:33:00;;;;;;;2.70;1.03;;;13.20;65.30;;;;;;5036330;28;20898;-74
2022/01/03 14:35:33;;;;;;;2.60;1.00;;;13.10;65.90;;;;;;5036359;28;20953;-74
2022/01/03 14:38:04;;;;;;;2.37;0.97;;;13.00;65.80;;;;;;5036055;28;20998;-74
2022/01/03 14:40:43;;;;;;;2.20;0.93;;;12.80;66.00;;;;;;5036529;28;20435;-75
2022/01/03 14:43:11;;;;;;;2.10;0.90;;;12.80;67.20;;;;;;5036980;28;20443;-74
2022/01/03 14:45:40;;;;;;;3.00;1.13;;;12.70;66.30;;;;;;5036809;28;20491;-75
2022/01/03 14:48:07;;;;;;;4.30;1.13;;;12.50;67.00;;;;;;5036836;28;20986;-75
2022/01/03 14:50:36;;;;;;;3.03;1.10;;;12.60;67.30;;;;;;5053709;28;20451;-74
2022/01/03 14:53:05;;;;;;;2.83;0.83;;;12.50;66.70;;;;;;5059761;28;20431;-75
2022/01/03 14:55:36;;;;;;;3.17;1.10;;;12.40;67.30;;;;;;5060997;28;20451;-76
2022/01/03 14:58:04;;;;;;;2.87;0.90;;;12.40;67.30;;;;;;5047304;28;20475;-75
2022/01/03 15:00:33;;;;;;;2.00;0.70;;;12.30;67.30;;;;;;5039029;28;20501;-75
2022/01/03 15:03:01;;;;;;;2.40;0.80;;;12.20;67.90;;;;;;5037301;28;20501;-75
2022/01/03 15:05:28;;;;;;;2.40;1.00;;;12.20;68.00;;;;;;5037798;28;20448;-75
2022/01/03 15:07:56;;;;;;;2.10;0.73;;;12.20;68.20;;;;;;5036928;28;20517;-75
2022/01/03 15:10:23;;;;;;;2.20;0.90;;;12.30;68.10;;;;;;5037107;28;20451;-75
2022/01/03 15:12:51;;;;;;;2.40;0.90;;;12.30;67.90;;;;;;5037198;28;20868;-75
2022/01/03 15:15:18;;;;;;;2.70;0.90;;;12.10;67.70;;;;;;5036831;28;20506;-75
2022/01/03 15:17:46;;;;;;;2.37;1.27;;;12.10;68.10;;;;;;5035725;28;20479;-75
2022/01/03 15:20:15;;;;;;;2.57;0.90;;;12.10;68.20;;;;;;5036343;28;20453;-75
2022/01/03 15:22:42;;;;;;;2.77;1.00;;;11.90;68.70;;;;;;5036309;28;20526;-75
2022/01/03 15:25:09;;;;;;;2.30;0.83;;;12.00;68.10;;;;;;5036113;28;20512;-75
2022/01/03 15:27:37;;;;;;;3.57;1.00;;;12.10;68.00;;;;;;5035274;28;21060;-75
2022/01/03 15:30:05;;;;;;;2.10;0.87;;;12.20;67.70;;;;;;5036107;28;20943;-75
2022/01/03 15:32:32;;;;;;;2.50;0.80;;;12.10;67.80;;;;;;5035250;28;20455;-75
2022/01/03 15:34:59;;;;;;;2.10;0.70;;;12.00;68.00;;;;;;5035565;28;20470;-74
2022/01/03 15:37:27;;;;;;;2.50;0.90;;;11.90;68.10;;;;;;5035322;28;20471;-75
2022/01/03 15:39:53;;;;;;;2.60;1.00;;;11.90;68.30;;;;;;5035050;28;20997;-75
2022/01/03 15:42:20;;;;;;;2.80;1.10;;;11.90;68.30;;;;;;5035302;28;20452;-75
2022/01/03 15:44:47;;;;;;;2.73;1.00;;;12.00;68.10;;;;;;5035039;28;20931;-74
2022/01/03 15:47:14;;;;;;;2.90;0.93;;;12.00;68.10;;;;;;5035097;28;20471;-75
2022/01/03 15:49:41;;;;;;;2.87;0.90;;;12.00;68.50;;;;;;5035392;28;20493;-74
2022/01/03 15:52:07;;;;;;;2.47;0.90;;;11.90;68.20;;;;;;5034877;28;20505;-75
2022/01/03 15:54:35;;;;;;;2.70;0.90;;;11.70;68.70;;;;;;5035016;28;20443;-75
2022/01/03 15:57:02;;;;;;;2.60;0.90;;;11.70;69.40;;;;;;5034649;28;20974;-75
2022/01/03 15:59:29;;;;;;;2.00;0.70;;;11.80;69.50;;;;;;5034916;28;20537;-75
2022/01/03 16:01:56;;;;;;;2.30;1.10;;;11.80;69.30;;;;;;5034898;28;20447;-75
2022/01/03 16:04:23;;;;;;;2.50;0.90;;;11.70;69.60;;;;;;5034990;28;20497;-74
2022/01/03 16:06:50;;;;;;;2.80;0.97;;;11.60;70.20;;;;;;5034949;28;20497;-75
2022/01/03 16:09:19;;;;;;;2.20;0.83;;;11.50;70.20;;;;;;5034953;28;20489;-75
2022/01/03 16:11:48;;;;;;;4.33;1.00;;;11.50;70.30;;;;;;5035058;28;20524;-75
2022/01/03 16:14:15;;;;;;;2.40;0.80;;;11.60;70.40;;;;;;5034695;28;20506;-75
2022/01/03 16:16:42;;;;;;;2.10;0.80;;;11.80;70.30;;;;;;5058334;22;21630;-75
2022/01/03 16:19:09;;;;;;;3.03;1.00;;;11.80;70.40;;;;;;5034466;28;20574;-73
2022/01/03 16:21:35;;;;;;;2.27;0.90;;;11.50;70.60;;;;;;5034188;28;20934;-72
2022/01/03 16:24:02;;;;;;;2.40;1.00;;;11.50;70.90;;;;;;5034342;28;20497;-73
2022/01/03 16:26:30;;;;;;;2.70;1.10;;;11.60;70.90;;;;;;5034278;28;20451;-73
2022/01/03 16:29:09;;;;;;;3.17;1.00;;;11.60;70.90;;;;;;5033985;28;20906;-73
2022/01/03 16:31:35;;;;;;;2.10;0.73;;;11.60;71.10;;;;;;5034332;28;20427;-73
2022/01/03 16:34:02;;;;;;;2.30;1.00;;;11.60;71.50;;;;;;5034176;28;20796;-73
2022/01/03 16:36:29;;;;;;;2.70;1.20;;;11.70;71.40;;;;;;5034110;28;20497;-72
2022/01/03 16:38:56;;;;;;;2.00;0.80;;;11.70;71.10;;;;;;5034060;28;20482;-73
2022/01/03 16:41:23;;;;;;;2.20;0.83;;;11.70;71.00;;;;;;5034095;28;20525;-73
2022/01/03 16:43:49;;;;;;;2.20;0.80;;;11.60;71.40;;;;;;5034007;28;20458;-73
2022/01/03 16:46:17;;;;;;;2.17;0.90;;;11.70;71.50;;;;;;5034009;28;20505;-72
2022/01/03 16:48:44;;;;;;;2.53;1.03;;;11.70;71.50;;;;;;5033535;28;20994;-73
2022/01/03 16:51:11;;;;;;;2.60;0.90;;;11.80;71.30;;;;;;5033906;28;20450;-73
2022/01/03 16:53:38;;;;;;;3.00;1.00;;;11.80;71.30;;;;;;5033807;28;20505;-73
2022/01/03 16:56:05;;;;;;;2.00;0.70;;;11.80;71.30;;;;;;5033803;28;20451;-72
2022/01/03 16:58:32;;;;;;;2.20;0.90;;;11.70;71.30;;;;;;5033690;28;20514;-73
2022/01/03 17:00:59;;;;;;;2.27;1.43;;;11.70;71.90;;;;;;5033743;28;20484;-72
2022/01/03 17:03:27;;;;;;;2.10;0.80;;;11.60;72.00;;;;;;5033657;28;20498;-72
2022/01/03 17:05:53;;;;;;;3.23;0.93;;;11.50;72.40;;;;;;5033663;28;20493;-72
2022/01/03 17:08:20;;;;;;;2.10;0.90;;;11.50;72.40;;;;;;5033586;28;20515;-72
2022/01/03 17:10:48;;;;;;;2.43;1.13;;;11.40;72.60;;;;;;5033617;28;20443;-72
2022/01/03 17:13:15;;;;;;;2.73;1.07;;;11.20;73.30;;;;;;5033553;28;20455;-73
2022/01/03 17:15:42;;;;;;;2.20;0.80;;;11.10;73.70;;;;;;5033598;28;20443;-73
2022/01/03 17:18:09;;;;;;;2.57;0.90;;;11.30;73.50;;;;;;5033077;28;20511;-73
2022/01/03 17:20:38;;;;;;;2.40;1.00;;;11.30;73.60;;;;;;5033552;28;20990;-73